sensor_id;sensor_type;location;lat;lon;timestamp;temperature;humidity
39779;DHT22;25454;49.878;8.618;2023-06-01T00:02:50;17.60;75.60
39779;DHT22;25454;49.878;8.618;2023-06-01T00:07:53;17.50;75.70
39779;DHT22;25454;49.878;8.618;2023-06-01T00:12:54;17.50;75.90
39779;DHT22;25454;49.878;8.618;2023-06-01T00:17:55;17.40;76.00
39779;DHT22;25454;49.878;8.618;2023-06-01T00:22:56;17.40;76.40
39779;DHT22;25454;49.878;8.618;2023-06-01T00:27:57;17.30;76.80
39779;DHT22;25454;49.878;8.618;2023-06-01T00:32:58;17.30;77.10
39779;DHT22;25454;49.878;8.618;2023-06-01T00:37:58;17.20;77.30
39779;DHT22;25454;49.878;8.618;2023-06-01T00:42:59;17.20;77.60
39779;DHT22;25454;49.878;8.618;2023-06-01T00:47:59;17.10;78.10
39779;DHT22;25454;49.878;8.618;2023-06-01T00:53:03;17.10;78.70
39779;DHT22;25454;49.878;8.618;2023-06-01T00:58:06;17.00;79.10
39779;DHT22;25454;49.878;8.618;2023-06-01T01:03:10;16.90;79.30
39779;DHT22;25454;49.878;8.618;2023-06-01T01:08:28;16.80;79.70
39779;DHT22;25454;49.878;8.618;2023-06-01T01:13:39;16.80;80.10
39779;DHT22;25454;49.878;8.618;2023-06-01T01:19:03;16.70;80.30
39779;DHT22;25454;49.878;8.618;2023-06-01T01:29:23;16.60;81.10
39779;DHT22;25454;49.878;8.618;2023-06-01T01:34:27;16.60;81.40
39779;DHT22;25454;49.878;8.618;2023-06-01T01:39:28;16.60;82.00
39779;DHT22;25454;49.878;8.618;2023-06-01T01:44:29;16.50;82.20
39779;DHT22;25454;49.878;8.618;2023-06-01T01:49:36;16.40;82.60
39779;DHT22;25454;49.878;8.618;2023-06-01T01:54:45;16.40;83.00
39779;DHT22;25454;49.878;8.618;2023-06-01T01:59:46;16.30;83.70
39779;DHT22;25454;49.878;8.618;2023-06-01T02:04:47;16.20;84.40
39779;DHT22;25454;49.878;8.618;2023-06-01T02:09:48;16.10;84.80
39779;DHT22;25454;49.878;8.618;2023-06-01T02:14:48;16.00;85.70
39779;DHT22;25454;49.878;8.618;2023-06-01T02:19:49;16.00;86.70
39779;DHT22;25454;49.878;8.618;2023-06-01T02:24:49;15.90;87.40
39779;DHT22;25454;49.878;8.618;2023-06-01T02:29:50;15.80;88.10
39779;DHT22;25454;49.878;8.618;2023-06-01T02:34:53;15.80;88.70
39779;DHT22;25454;49.878;8.618;2023-06-01T02:39:54;15.70;89.20
39779;DHT22;25454;49.878;8.618;2023-06-01T02:44:55;15.70;89.70
39779;DHT22;25454;49.878;8.618;2023-06-01T02:49:55;15.60;90.10
39779;DHT22;25454;49.878;8.618;2023-06-01T02:54:56;15.50;90.30
39779;DHT22;25454;49.878;8.618;2023-06-01T02:59:56;15.60;90.60
39779;DHT22;25454;49.878;8.618;2023-06-01T03:04:59;15.50;90.80
39779;DHT22;25454;49.878;8.618;2023-06-01T03:10:00;15.40;91.20
39779;DHT22;25454;49.878;8.618;2023-06-01T03:15:01;15.40;91.50
39779;DHT22;25454;49.878;8.618;2023-06-01T03:20:02;15.40;91.80
39779;DHT22;25454;49.878;8.618;2023-06-01T03:25:03;15.40;92.00
39779;DHT22;25454;49.878;8.618;2023-06-01T03:30:10;15.40;92.20
39779;DHT22;25454;49.878;8.618;2023-06-01T03:35:11;15.40;92.30
39779;DHT22;25454;49.878;8.618;2023-06-01T03:40:12;15.40;92.60
39779;DHT22;25454;49.878;8.618;2023-06-01T03:45:14;15.20;92.80
39779;DHT22;25454;49.878;8.618;2023-06-01T03:50:16;15.20;93.20
39779;DHT22;25454;49.878;8.618;2023-06-01T03:55:17;15.10;93.40
39779;DHT22;25454;49.878;8.618;2023-06-01T04:00:18;15.20;93.60
39779;DHT22;25454;49.878;8.618;2023-06-01T04:05:19;15.40;93.20
39779;DHT22;25454;49.878;8.618;2023-06-01T04:10:21;15.40;93.30
39779;DHT22;25454;49.878;8.618;2023-06-01T04:15:22;15.60;92.90
39779;DHT22;25454;49.878;8.618;2023-06-01T04:20:23;15.60;93.10
39779;DHT22;25454;49.878;8.618;2023-06-01T04:25:23;15.60;93.10
39779;DHT22;25454;49.878;8.618;2023-06-01T04:30:24;15.70;93.00
39779;DHT22;25454;49.878;8.618;2023-06-01T04:35:26;15.80;93.00
39779;DHT22;25454;49.878;8.618;2023-06-01T04:40:26;16.20;92.80
39779;DHT22;25454;49.878;8.618;2023-06-01T04:45:27;16.60;91.60
39779;DHT22;25454;49.878;8.618;2023-06-01T04:50:31;16.50;91.50
39779;DHT22;25454;49.878;8.618;2023-06-01T04:55:32;16.40;91.90
39779;DHT22;25454;49.878;8.618;2023-06-01T05:00:32;16.60;91.90
39779;DHT22;25454;49.878;8.618;2023-06-01T05:05:33;18.50;86.80
39779;DHT22;25454;49.878;8.618;2023-06-01T05:10:34;20.90;77.10
39779;DHT22;25454;49.878;8.618;2023-06-01T05:15:35;22.30;69.60
39779;DHT22;25454;49.878;8.618;2023-06-01T05:20:35;22.10;68.70
39779;DHT22;25454;49.878;8.618;2023-06-01T05:25:36;22.90;65.60
39779;DHT22;25454;49.878;8.618;2023-06-01T05:30:36;24.00;61.80
39779;DHT22;25454;49.878;8.618;2023-06-01T05:35:37;24.20;60.50
39779;DHT22;25454;49.878;8.618;2023-06-01T05:40:37;24.80;59.00
39779;DHT22;25454;49.878;8.618;2023-06-01T05:45:38;25.70;56.30
39779;DHT22;25454;49.878;8.618;2023-06-01T05:50:38;26.50;55.30
39779;DHT22;25454;49.878;8.618;2023-06-01T05:55:40;26.90;53.50
39779;DHT22;25454;49.878;8.618;2023-06-01T06:00:41;26.30;53.70
39779;DHT22;25454;49.878;8.618;2023-06-01T06:05:42;26.30;54.30
39779;DHT22;25454;49.878;8.618;2023-06-01T06:10:42;27.20;53.60
39779;DHT22;25454;49.878;8.618;2023-06-01T06:15:43;28.80;50.20
39779;DHT22;25454;49.878;8.618;2023-06-01T06:20:44;28.40;50.10
39779;DHT22;25454;49.878;8.618;2023-06-01T06:25:45;28.40;49.50
39779;DHT22;25454;49.878;8.618;2023-06-01T06:30:46;28.30;49.80
39779;DHT22;25454;49.878;8.618;2023-06-01T06:35:46;28.30;49.80
39779;DHT22;25454;49.878;8.618;2023-06-01T06:40:47;30.30;47.00
39779;DHT22;25454;49.878;8.618;2023-06-01T06:45:48;29.70;46.40
39779;DHT22;25454;49.878;8.618;2023-06-01T06:50:49;28.90;48.20
39779;DHT22;25454;49.878;8.618;2023-06-01T06:55:50;29.00;48.20
39779;DHT22;25454;49.878;8.618;2023-06-01T07:00:51;29.30;47.20
39779;DHT22;25454;49.878;8.618;2023-06-01T07:05:52;29.70;46.70
39779;DHT22;25454;49.878;8.618;2023-06-01T07:10:53;30.40;45.60
39779;DHT22;25454;49.878;8.618;2023-06-01T07:15:56;32.50;43.80
39779;DHT22;25454;49.878;8.618;2023-06-01T07:21:01;32.30;42.70
39779;DHT22;25454;49.878;8.618;2023-06-01T07:26:01;32.20;43.10
39779;DHT22;25454;49.878;8.618;2023-06-01T07:31:03;32.50;41.40
39779;DHT22;25454;49.878;8.618;2023-06-01T07:36:05;34.00;40.90
39779;DHT22;25454;49.878;8.618;2023-06-01T07:41:20;35.50;37.40
39779;DHT22;25454;49.878;8.618;2023-06-01T07:46:21;34.50;37.60
39779;DHT22;25454;49.878;8.618;2023-06-01T07:51:22;34.00;38.30
39779;DHT22;25454;49.878;8.618;2023-06-01T07:56:23;33.20;39.50
39779;DHT22;25454;49.878;8.618;2023-06-01T08:01:27;33.50;39.60
39779;DHT22;25454;49.878;8.618;2023-06-01T08:06:31;35.30;37.70
39779;DHT22;25454;49.878;8.618;2023-06-01T08:11:36;35.60;36.70
39779;DHT22;25454;49.878;8.618;2023-06-01T08:16:37;34.70;37.30
39779;DHT22;25454;49.878;8.618;2023-06-01T08:21:37;33.90;38.60
39779;DHT22;25454;49.878;8.618;2023-06-01T08:26:38;34.10;38.30
39779;DHT22;25454;49.878;8.618;2023-06-01T08:31:38;33.70;37.60
39779;DHT22;25454;49.878;8.618;2023-06-01T08:36:39;34.40;38.50
39779;DHT22;25454;49.878;8.618;2023-06-01T08:41:44;34.70;36.90
39779;DHT22;25454;49.878;8.618;2023-06-01T08:46:45;37.50;34.70
39779;DHT22;25454;49.878;8.618;2023-06-01T08:51:48;38.90;32.00
39779;DHT22;25454;49.878;8.618;2023-06-01T08:56:50;39.10;32.30
39779;DHT22;25454;49.878;8.618;2023-06-01T09:01:52;39.60;30.10
39779;DHT22;25454;49.878;8.618;2023-06-01T09:06:53;41.10;29.20
39779;DHT22;25454;49.878;8.618;2023-06-01T09:12:22;40.00;31.40
39779;DHT22;25454;49.878;8.618;2023-06-01T09:17:26;39.30;31.50
39779;DHT22;25454;49.878;8.618;2023-06-01T09:22:44;38.70;31.70
39779;DHT22;25454;49.878;8.618;2023-06-01T09:27:55;38.80;30.80
39779;DHT22;25454;49.878;8.618;2023-06-01T09:33:16;38.10;31.70
39779;DHT22;25454;49.878;8.618;2023-06-01T09:38:24;39.40;30.60
39779;DHT22;25454;49.878;8.618;2023-06-01T09:43:25;41.00;29.00
39779;DHT22;25454;49.878;8.618;2023-06-01T09:48:27;41.30;28.60
39779;DHT22;25454;49.878;8.618;2023-06-01T09:53:42;39.90;28.80
39779;DHT22;25454;49.878;8.618;2023-06-01T09:58:43;37.90;30.30
39779;DHT22;25454;49.878;8.618;2023-06-01T10:03:48;39.50;29.80
39779;DHT22;25454;49.878;8.618;2023-06-01T10:08:52;38.50;30.40
39779;DHT22;25454;49.878;8.618;2023-06-01T10:13:54;39.10;30.20
39779;DHT22;25454;49.878;8.618;2023-06-01T10:18:57;38.40;29.80
39779;DHT22;25454;49.878;8.618;2023-06-01T10:23:58;37.90;30.20
39779;DHT22;25454;49.878;8.618;2023-06-01T10:29:02;40.20;29.30
39779;DHT22;25454;49.878;8.618;2023-06-01T10:34:08;38.70;29.70
39779;DHT22;25454;49.878;8.618;2023-06-01T10:39:23;40.10;28.00
39779;DHT22;25454;49.878;8.618;2023-06-01T10:54:49;42.10;26.90
39779;DHT22;25454;49.878;8.618;2023-06-01T11:00:12;41.60;27.00
39779;DHT22;25454;49.878;8.618;2023-06-01T11:11:00;43.80;25.00
39779;DHT22;25454;49.878;8.618;2023-06-01T11:21:21;43.10;25.60
39779;DHT22;25454;49.878;8.618;2023-06-01T11:26:24;41.60;26.40
39779;DHT22;25454;49.878;8.618;2023-06-01T11:31:25;40.80;26.20
39779;DHT22;25454;49.878;8.618;2023-06-01T11:36:27;38.70;28.00
39779;DHT22;25454;49.878;8.618;2023-06-01T11:41:28;37.70;29.20
39779;DHT22;25454;49.878;8.618;2023-06-01T11:46:30;35.90;32.00
39779;DHT22;25454;49.878;8.618;2023-06-01T11:51:36;33.90;34.10
39779;DHT22;25454;49.878;8.618;2023-06-01T11:56:37;32.40;36.30
39779;DHT22;25454;49.878;8.618;2023-06-01T12:01:43;31.60;37.00
39779;DHT22;25454;49.878;8.618;2023-06-01T12:06:45;31.00;36.90
39779;DHT22;25454;49.878;8.618;2023-06-01T12:11:46;30.50;38.20
39779;DHT22;25454;49.878;8.618;2023-06-01T12:16:57;29.90;39.00
39779;DHT22;25454;49.878;8.618;2023-06-01T12:22:05;29.40;39.00
39779;DHT22;25454;49.878;8.618;2023-06-01T12:27:14;29.20;40.40
39779;DHT22;25454;49.878;8.618;2023-06-01T12:32:18;29.50;38.90
39779;DHT22;25454;49.878;8.618;2023-06-01T12:37:20;29.70;38.10
39779;DHT22;25454;49.878;8.618;2023-06-01T12:42:34;29.20;38.30
39779;DHT22;25454;49.878;8.618;2023-06-01T12:47:41;29.10;38.10
39779;DHT22;25454;49.878;8.618;2023-06-01T12:52:42;28.80;37.20
39779;DHT22;25454;49.878;8.618;2023-06-01T12:57:43;28.70;36.90
39779;DHT22;25454;49.878;8.618;2023-06-01T13:02:44;28.80;36.20
39779;DHT22;25454;49.878;8.618;2023-06-01T13:07:48;28.60;34.00
39779;DHT22;25454;49.878;8.618;2023-06-01T13:12:49;28.30;35.30
39779;DHT22;25454;49.878;8.618;2023-06-01T13:17:50;28.30;37.20
39779;DHT22;25454;49.878;8.618;2023-06-01T13:22:50;28.20;36.70
39779;DHT22;25454;49.878;8.618;2023-06-01T13:27:52;28.30;37.80
39779;DHT22;25454;49.878;8.618;2023-06-01T13:32:54;28.40;36.10
39779;DHT22;25454;49.878;8.618;2023-06-01T13:37:55;28.20;35.00
39779;DHT22;25454;49.878;8.618;2023-06-01T13:42:56;28.10;37.80
39779;DHT22;25454;49.878;8.618;2023-06-01T13:47:57;28.00;36.70
39779;DHT22;25454;49.878;8.618;2023-06-01T13:52:59;28.00;36.80
39779;DHT22;25454;49.878;8.618;2023-06-01T13:57:59;28.00;36.60
39779;DHT22;25454;49.878;8.618;2023-06-01T14:03:03;27.90;34.40
39779;DHT22;25454;49.878;8.618;2023-06-01T14:08:04;28.00;34.20
39779;DHT22;25454;49.878;8.618;2023-06-01T14:13:04;27.90;36.10
39779;DHT22;25454;49.878;8.618;2023-06-01T14:18:05;28.00;36.20
39779;DHT22;25454;49.878;8.618;2023-06-01T14:23:06;28.00;36.90
39779;DHT22;25454;49.878;8.618;2023-06-01T14:28:09;27.90;37.90
39779;DHT22;25454;49.878;8.618;2023-06-01T14:33:10;27.80;38.20
39779;DHT22;25454;49.878;8.618;2023-06-01T14:38:10;27.80;38.50
39779;DHT22;25454;49.878;8.618;2023-06-01T14:43:12;27.80;39.00
39779;DHT22;25454;49.878;8.618;2023-06-01T14:48:12;27.70;39.70
39779;DHT22;25454;49.878;8.618;2023-06-01T14:53:13;27.80;39.40
39779;DHT22;25454;49.878;8.618;2023-06-01T14:58:13;27.60;39.50
39779;DHT22;25454;49.878;8.618;2023-06-01T15:03:14;27.70;40.30
39779;DHT22;25454;49.878;8.618;2023-06-01T15:08:15;27.80;40.70
39779;DHT22;25454;49.878;8.618;2023-06-01T15:13:16;28.00;40.90
39779;DHT22;25454;49.878;8.618;2023-06-01T15:18:16;28.10;40.20
39779;DHT22;25454;49.878;8.618;2023-06-01T15:23:18;28.00;39.90
39779;DHT22;25454;49.878;8.618;2023-06-01T15:28:19;27.90;42.30
39779;DHT22;25454;49.878;8.618;2023-06-01T15:33:20;28.00;40.70
39779;DHT22;25454;49.878;8.618;2023-06-01T15:38:20;28.10;41.80
39779;DHT22;25454;49.878;8.618;2023-06-01T15:43:21;28.10;41.90
39779;DHT22;25454;49.878;8.618;2023-06-01T15:48:22;28.10;42.60
39779;DHT22;25454;49.878;8.618;2023-06-01T15:53:23;28.20;42.70
39779;DHT22;25454;49.878;8.618;2023-06-01T15:58:23;28.20;42.20
39779;DHT22;25454;49.878;8.618;2023-06-01T16:03:24;27.90;42.70
39779;DHT22;25454;49.878;8.618;2023-06-01T16:08:25;28.00;43.70
39779;DHT22;25454;49.878;8.618;2023-06-01T16:13:25;27.90;43.60
39779;DHT22;25454;49.878;8.618;2023-06-01T16:18:26;27.80;44.00
39779;DHT22;25454;49.878;8.618;2023-06-01T16:23:26;27.70;46.10
39779;DHT22;25454;49.878;8.618;2023-06-01T16:28:27;27.60;46.40
39779;DHT22;25454;49.878;8.618;2023-06-01T16:33:28;27.70;48.40
39779;DHT22;25454;49.878;8.618;2023-06-01T16:38:28;27.70;49.60
39779;DHT22;25454;49.878;8.618;2023-06-01T16:43:29;27.80;49.50
39779;DHT22;25454;49.878;8.618;2023-06-01T16:48:29;27.70;49.00
39779;DHT22;25454;49.878;8.618;2023-06-01T16:53:30;27.50;48.70
39779;DHT22;25454;49.878;8.618;2023-06-01T16:58:31;27.30;49.10
39779;DHT22;25454;49.878;8.618;2023-06-01T17:03:31;27.10;49.70
39779;DHT22;25454;49.878;8.618;2023-06-01T17:08:32;26.90;48.30
39779;DHT22;25454;49.878;8.618;2023-06-01T17:13:33;26.70;48.10
39779;DHT22;25454;49.878;8.618;2023-06-01T17:18:33;26.70;47.90
39779;DHT22;25454;49.878;8.618;2023-06-01T17:23:34;26.70;47.00
39779;DHT22;25454;49.878;8.618;2023-06-01T17:28:37;26.80;46.50
39779;DHT22;25454;49.878;8.618;2023-06-01T17:33:38;26.60;48.00
39779;DHT22;25454;49.878;8.618;2023-06-01T17:38:38;26.30;48.10
39779;DHT22;25454;49.878;8.618;2023-06-01T17:43:39;26.10;48.40
39779;DHT22;25454;49.878;8.618;2023-06-01T17:48:41;25.80;49.00
39779;DHT22;25454;49.878;8.618;2023-06-01T17:53:41;25.70;48.80
39779;DHT22;25454;49.878;8.618;2023-06-01T17:58:44;25.50;49.30
39779;DHT22;25454;49.878;8.618;2023-06-01T18:03:45;25.30;49.80
39779;DHT22;25454;49.878;8.618;2023-06-01T18:08:46;25.10;50.50
39779;DHT22;25454;49.878;8.618;2023-06-01T18:13:46;24.80;51.10
39779;DHT22;25454;49.878;8.618;2023-06-01T18:18:49;24.60;51.20
39779;DHT22;25454;49.878;8.618;2023-06-01T18:23:50;24.30;51.50
39779;DHT22;25454;49.878;8.618;2023-06-01T18:28:50;24.30;52.00
39779;DHT22;25454;49.878;8.618;2023-06-01T18:33:51;24.10;52.30
39779;DHT22;25454;49.878;8.618;2023-06-01T18:38:52;23.90;52.70
39779;DHT22;25454;49.878;8.618;2023-06-01T18:43:52;23.70;53.30
39779;DHT22;25454;49.878;8.618;2023-06-01T18:48:53;23.50;53.80
39779;DHT22;25454;49.878;8.618;2023-06-01T18:53:53;23.30;54.50
39779;DHT22;25454;49.878;8.618;2023-06-01T18:58:54;23.20;55.10
39779;DHT22;25454;49.878;8.618;2023-06-01T19:03:55;23.00;55.40
39779;DHT22;25454;49.878;8.618;2023-06-01T19:09:00;22.90;56.00
39779;DHT22;25454;49.878;8.618;2023-06-01T19:14:00;22.80;56.50
39779;DHT22;25454;49.878;8.618;2023-06-01T19:19:01;22.60;56.30
39779;DHT22;25454;49.878;8.618;2023-06-01T19:24:05;22.50;55.90
39779;DHT22;25454;49.878;8.618;2023-06-01T19:29:11;22.30;56.20
39779;DHT22;25454;49.878;8.618;2023-06-01T19:34:13;22.20;56.70
39779;DHT22;25454;49.878;8.618;2023-06-01T19:39:43;22.00;57.20
39779;DHT22;25454;49.878;8.618;2023-06-01T19:44:45;21.80;57.80
39779;DHT22;25454;49.878;8.618;2023-06-01T19:49:45;21.70;58.00
39779;DHT22;25454;49.878;8.618;2023-06-01T19:54:46;21.60;58.40
39779;DHT22;25454;49.878;8.618;2023-06-01T19:59:46;21.40;58.30
39779;DHT22;25454;49.878;8.618;2023-06-01T20:04:47;21.30;58.50
39779;DHT22;25454;49.878;8.618;2023-06-01T20:09:47;21.20;58.80
39779;DHT22;25454;49.878;8.618;2023-06-01T20:14:50;21.00;59.10
39779;DHT22;25454;49.878;8.618;2023-06-01T20:19:50;20.90;59.10
39779;DHT22;25454;49.878;8.618;2023-06-01T20:24:52;20.80;59.30
39779;DHT22;25454;49.878;8.618;2023-06-01T20:29:53;20.70;59.60
39779;DHT22;25454;49.878;8.618;2023-06-01T20:34:53;20.50;60.00
39779;DHT22;25454;49.878;8.618;2023-06-01T20:39:54;20.50;60.90
39779;DHT22;25454;49.878;8.618;2023-06-01T20:44:55;20.30;61.70
39779;DHT22;25454;49.878;8.618;2023-06-01T20:49:55;20.20;62.40
39779;DHT22;25454;49.878;8.618;2023-06-01T20:54:57;20.10;63.10
39779;DHT22;25454;49.878;8.618;2023-06-01T20:59:57;20.00;64.00
39779;DHT22;25454;49.878;8.618;2023-06-01T21:04:58;19.80;65.30
39779;DHT22;25454;49.878;8.618;2023-06-01T21:09:58;19.70;66.10
39779;DHT22;25454;49.878;8.618;2023-06-01T21:14:59;19.50;67.00
39779;DHT22;25454;49.878;8.618;2023-06-01T21:19:59;19.40;67.90
39779;DHT22;25454;49.878;8.618;2023-06-01T21:25:00;19.20;68.70
39779;DHT22;25454;49.878;8.618;2023-06-01T21:30:01;19.10;69.80
39779;DHT22;25454;49.878;8.618;2023-06-01T21:35:01;18.80;70.90
39779;DHT22;25454;49.878;8.618;2023-06-01T21:40:02;18.70;71.60
39779;DHT22;25454;49.878;8.618;2023-06-01T21:45:03;18.50;72.60
39779;DHT22;25454;49.878;8.618;2023-06-01T21:50:07;18.30;73.20
39779;DHT22;25454;49.878;8.618;2023-06-01T21:55:08;18.20;73.90
39779;DHT22;25454;49.878;8.618;2023-06-01T22:00:10;17.90;74.70
39779;DHT22;25454;49.878;8.618;2023-06-01T22:05:16;17.80;75.40
39779;DHT22;25454;49.878;8.618;2023-06-01T22:10:19;17.60;76.20
39779;DHT22;25454;49.878;8.618;2023-06-01T22:15:20;17.40;77.10
39779;DHT22;25454;49.878;8.618;2023-06-01T22:20:21;17.20;78.10
39779;DHT22;25454;49.878;8.618;2023-06-01T22:25:21;17.00;79.40
39779;DHT22;25454;49.878;8.618;2023-06-01T22:30:22;16.80;80.80
39779;DHT22;25454;49.878;8.618;2023-06-01T22:35:22;16.70;81.30
39779;DHT22;25454;49.878;8.618;2023-06-01T22:40:24;16.50;82.50
39779;DHT22;25454;49.878;8.618;2023-06-01T22:45:25;16.40;83.70
39779;DHT22;25454;49.878;8.618;2023-06-01T22:50:25;16.20;84.70
39779;DHT22;25454;49.878;8.618;2023-06-01T22:55:26;16.00;85.50
39779;DHT22;25454;49.878;8.618;2023-06-01T23:00:27;15.90;86.50
39779;DHT22;25454;49.878;8.618;2023-06-01T23:05:28;15.70;87.70
39779;DHT22;25454;49.878;8.618;2023-06-01T23:10:29;15.60;88.40
39779;DHT22;25454;49.878;8.618;2023-06-01T23:15:30;15.60;88.90
39779;DHT22;25454;49.878;8.618;2023-06-01T23:20:31;15.50;89.50
39779;DHT22;25454;49.878;8.618;2023-06-01T23:25:38;15.40;90.10
39779;DHT22;25454;49.878;8.618;2023-06-01T23:30:39;15.30;90.40
39779;DHT22;25454;49.878;8.618;2023-06-01T23:35:40;15.20;90.60
39779;DHT22;25454;49.878;8.618;2023-06-01T23:40:41;15.20;90.90
39779;DHT22;25454;49.878;8.618;2023-06-01T23:45:41;15.20;91.20
39779;DHT22;25454;49.878;8.618;2023-06-01T23:50:42;15.10;91.40
39779;DHT22;25454;49.878;8.618;2023-06-01T23:55:43;15.00;91.80
